createdAt,value
2022-10-17T00:29:11.018Z,0
2022-10-17T00:29:51.323Z,0
2022-10-17T00:30:31.836Z,0
2022-10-17T00:31:12.264Z,0
2022-10-17T00:32:33.258Z,0
2022-10-17T00:33:13.747Z,0
2022-10-17T00:33:54.223Z,0
2022-10-17T00:34:34.658Z,0
2022-10-17T00:35:55.610Z,0
2022-10-17T00:42:40.481Z,0
2022-10-17T00:43:21.043Z,0
2022-10-17T00:44:01.465Z,0
2022-10-17T00:44:41.943Z,0
2022-10-17T00:45:22.483Z,0
2022-10-17T00:46:02.887Z,0
2022-10-17T00:46:43.419Z,0
2022-10-17T00:47:23.868Z,0
2022-10-17T00:48:44.955Z,0
2022-10-17T00:49:25.349Z,0
2022-10-17T00:56:50.729Z,0
2022-10-17T00:57:31.249Z,0
2022-10-17T00:58:11.727Z,0
2022-10-17T00:58:52.414Z,0
2022-10-17T00:59:32.908Z,0
2022-10-17T01:00:13.385Z,0
2022-10-17T01:00:53.864Z,0
2022-10-17T01:01:34.344Z,0
2022-10-17T01:02:14.837Z,0
2022-10-17T01:02:55.322Z,0
2022-10-17T01:09:40.407Z,0
2022-10-17T01:10:20.897Z,0
2022-10-17T01:11:01.397Z,0
2022-10-17T01:11:41.889Z,0
2022-10-17T01:12:22.442Z,0
2022-10-17T01:13:02.978Z,0
2022-10-17T01:13:43.412Z,0
2022-10-17T01:14:23.896Z,0
2022-10-17T01:15:04.451Z,0
2022-10-17T01:15:44.852Z,0
2022-10-17T01:16:25.301Z,0
2022-10-17T01:23:10.388Z,0
2022-10-17T01:23:50.893Z,0
2022-10-17T01:24:31.425Z,0
2022-10-17T01:25:11.931Z,0
2022-10-17T01:25:52.429Z,0
2022-10-17T01:26:32.888Z,0
2022-10-17T01:27:13.865Z,0
2022-10-17T01:27:53.894Z,0
2022-10-17T01:28:34.532Z,0
2022-10-17T01:29:14.851Z,0
2022-10-17T01:29:55.357Z,0
2022-10-17T01:36:40.475Z,0
2022-10-17T01:37:21.065Z,0
2022-10-17T01:38:01.501Z,0
2022-10-17T01:38:41.992Z,0
2022-10-17T01:39:22.437Z,0
2022-10-17T01:40:02.907Z,0
2022-10-17T01:40:43.403Z,0
2022-10-17T01:41:23.853Z,0
2022-10-17T01:42:04.424Z,0
2022-10-17T01:42:44.886Z,0
2022-10-17T01:48:26.294Z,0
2022-10-17T01:49:07.514Z,0
2022-10-17T01:49:47.942Z,0
2022-10-17T01:50:28.375Z,0
2022-10-17T01:51:08.871Z,0
2022-10-17T01:51:49.335Z,0
2022-10-17T01:52:29.889Z,0
2022-10-17T01:53:10.335Z,0
2022-10-17T01:59:55.327Z,0
2022-10-17T02:00:35.770Z,0
2022-10-17T02:01:56.792Z,0
2022-10-17T02:02:37.325Z,0
2022-10-17T02:03:17.763Z,0
2022-10-17T02:03:58.296Z,0
2022-10-17T02:04:38.855Z,0
2022-10-17T02:05:19.335Z,0
2022-10-17T02:05:59.739Z,0
2022-10-17T02:06:40.294Z,0
2022-10-17T02:13:25.498Z,0
2022-10-17T02:14:06.100Z,0
2022-10-17T02:14:46.535Z,0
2022-10-17T02:15:26.997Z,0
2022-10-17T02:16:07.519Z,0
2022-10-17T02:16:48.036Z,0
2022-10-17T02:17:28.782Z,0
2022-10-17T02:18:09.045Z,0
2022-10-17T02:18:49.538Z,0
2022-10-17T02:19:30.175Z,0
2022-10-17T02:20:10.614Z,0
2022-10-17T02:26:55.680Z,0
2022-10-17T02:27:36.164Z,0
2022-10-17T02:28:16.704Z,0
2022-10-17T02:28:57.307Z,0
2022-10-17T02:29:37.685Z,0
2022-10-17T02:30:18.246Z,0
2022-10-17T02:30:58.745Z,0
2022-10-17T02:31:39.209Z,0
2022-10-17T02:33:00.146Z,0
2022-10-17T02:33:40.693Z,0
2022-10-17T02:39:45.277Z,0
2022-10-17T02:40:25.791Z,0
2022-10-17T02:41:06.298Z,0
2022-10-17T02:41:46.782Z,0
2022-10-17T02:42:27.512Z,0
2022-10-17T02:43:07.903Z,0
2022-10-17T02:43:48.427Z,0
2022-10-17T02:44:28.924Z,0
2022-10-17T02:45:49.928Z,0
2022-10-17T02:46:30.411Z,0
2022-10-17T02:51:55.560Z,0
2022-10-17T02:52:36.095Z,0
2022-10-17T02:53:16.605Z,0
2022-10-17T02:53:57.135Z,0
2022-10-17T02:54:37.593Z,0
2022-10-17T02:55:18.104Z,0
2022-10-17T02:55:58.567Z,0
2022-10-17T02:56:39.042Z,0
2022-10-17T02:57:19.503Z,0
2022-10-17T02:57:59.989Z,0
2022-10-17T02:58:40.502Z,0
2022-10-17T03:05:25.564Z,0
2022-10-17T03:06:06.043Z,0
2022-10-17T03:06:46.558Z,0
2022-10-17T03:07:27.031Z,0
2022-10-17T03:08:07.445Z,0
2022-10-17T03:08:47.980Z,0
2022-10-17T03:09:28.470Z,0
2022-10-17T03:10:08.929Z,0
2022-10-17T03:10:49.393Z,0
2022-10-17T03:11:29.910Z,0
2022-10-17T03:12:10.480Z,0
2022-10-17T03:18:55.432Z,0
2022-10-17T03:19:35.862Z,0
2022-10-17T03:20:16.360Z,0
2022-10-17T03:20:57.487Z,0
2022-10-17T03:21:37.356Z,0
2022-10-17T03:22:17.841Z,0
2022-10-17T03:23:38.712Z,0
2022-10-17T03:24:19.218Z,0
2022-10-17T03:24:59.710Z,0
2022-10-17T03:25:40.277Z,0
2022-10-17T03:33:05.570Z,0
2022-10-17T03:33:46.075Z,0
2022-10-17T03:34:26.581Z,0
2022-10-17T03:35:08.389Z,0
2022-10-17T03:35:47.593Z,0
2022-10-17T03:36:28.066Z,0
2022-10-17T03:37:08.560Z,0
2022-10-17T03:37:49.018Z,0
2022-10-17T03:38:29.849Z,0
2022-10-17T03:39:10.371Z,0
2022-10-17T03:46:35.723Z,0
2022-10-17T03:47:16.265Z,0
2022-10-17T03:47:56.751Z,0
2022-10-17T03:48:37.244Z,0
2022-10-17T03:49:17.726Z,0
2022-10-17T03:49:58.295Z,0
2022-10-17T03:50:38.799Z,0
2022-10-17T03:51:19.304Z,0
2022-10-17T03:51:59.758Z,0
2022-10-17T03:52:40.361Z,0
2022-10-17T03:59:25.443Z,0
2022-10-17T04:00:05.967Z,0
2022-10-17T04:00:46.484Z,0
2022-10-17T04:01:27.035Z,0
2022-10-17T04:02:07.540Z,0
2022-10-17T04:02:48.033Z,0
2022-10-17T04:03:28.490Z,0
2022-10-17T04:04:08.985Z,0
2022-10-17T04:04:49.484Z,0
2022-10-17T04:05:29.979Z,0
2022-10-17T04:06:10.562Z,0
2022-10-17T04:12:32.101Z,0
2022-10-17T04:13:12.406Z,0
2022-10-17T04:13:52.879Z,0
2022-10-17T04:14:33.330Z,0
2022-10-17T04:15:13.807Z,0
2022-10-17T04:15:54.311Z,0
2022-10-17T04:16:34.816Z,0
2022-10-17T04:17:15.270Z,0
2022-10-17T04:17:55.899Z,0
2022-10-17T04:18:36.333Z,0
2022-10-17T04:19:16.874Z,0
2022-10-17T04:26:01.885Z,0
2022-10-17T04:26:42.347Z,0
2022-10-17T04:27:22.905Z,0
2022-10-17T04:28:03.389Z,0
2022-10-17T04:28:43.891Z,0
2022-10-17T04:29:24.440Z,0
2022-10-17T04:30:04.898Z,0
2022-10-17T04:30:45.625Z,0
2022-10-17T04:31:25.862Z,0
2022-10-17T04:32:06.368Z,0
2022-10-17T04:32:46.920Z,0
2022-10-17T04:38:51.585Z,0
2022-10-17T04:39:31.966Z,0
2022-10-17T04:40:12.511Z,0
2022-10-17T04:40:52.968Z,0
2022-10-17T04:41:33.469Z,0
2022-10-17T04:42:13.967Z,0
2022-10-17T04:42:54.455Z,0
2022-10-17T04:43:34.958Z,0
2022-10-17T04:44:15.517Z,0
2022-10-17T04:44:55.971Z,0
2022-10-17T04:45:36.455Z,0
2022-10-17T04:46:16.964Z,0
2022-10-17T04:53:39.808Z,0
2022-10-17T04:54:19.867Z,0
2022-10-17T04:55:00.350Z,0
2022-10-17T04:55:40.839Z,0
2022-10-17T04:56:21.368Z,0
2022-10-17T04:57:01.946Z,0
2022-10-17T04:57:42.295Z,0
2022-10-17T04:58:22.833Z,0
2022-10-17T04:59:03.343Z,0
2022-10-17T04:59:43.787Z,0
2022-10-17T05:00:24.355Z,0
2022-10-17T05:01:04.898Z,0
2022-10-17T05:01:45.390Z,0
2022-10-17T05:02:25.920Z,0
2022-10-17T05:03:06.356Z,0
2022-10-17T05:09:51.441Z,0
2022-10-17T05:10:31.923Z,0
2022-10-17T05:11:12.395Z,0
2022-10-17T05:11:52.918Z,0
2022-10-17T05:12:33.439Z,0
2022-10-17T05:13:13.919Z,0
2022-10-17T05:13:54.383Z,0
2022-10-17T05:14:34.932Z,0
2022-10-17T05:15:15.488Z,0
2022-10-17T05:15:56.042Z,0
2022-10-17T05:21:21.355Z,0
2022-10-17T05:22:01.821Z,0
2022-10-17T05:22:42.523Z,0
2022-10-17T05:23:23.630Z,0
2022-10-17T05:24:44.781Z,0
2022-10-17T05:25:25.398Z,0
2022-10-17T05:26:05.901Z,0
2022-10-17T05:26:46.389Z,0
2022-10-17T05:33:31.624Z,0
2022-10-17T05:34:13.839Z,4
2022-10-17T05:34:52.654Z,4
2022-10-17T05:35:33.220Z,0
2022-10-17T05:36:13.844Z,4
2022-10-17T05:36:54.339Z,4
2022-10-17T05:37:34.836Z,4
2022-10-17T05:38:15.431Z,4
2022-10-17T05:38:55.890Z,4
2022-10-17T05:39:36.426Z,8
2022-10-17T05:45:01.766Z,12
2022-10-17T05:45:42.204Z,12
2022-10-17T05:46:22.703Z,12
2022-10-17T05:47:03.199Z,16
2022-10-17T05:47:43.735Z,16
2022-10-17T05:48:24.295Z,20
2022-10-17T05:49:10.669Z,20
2022-10-17T05:49:49.930Z,20
2022-10-17T05:50:25.830Z,24
2022-10-17T05:51:06.413Z,24
2022-10-17T06:31:51.657Z,1428
2022-10-17T06:32:33.647Z,1332
2022-10-17T06:33:19.100Z,1188
2022-10-17T06:34:01.471Z,1072
2022-10-17T06:34:45.312Z,1072
2022-10-17T06:37:07.891Z,1400
2022-10-17T06:37:48.180Z,1404
2022-10-17T06:38:29.570Z,1360
2022-10-17T06:39:10.100Z,1348
2022-10-17T06:39:50.689Z,1376
2022-10-17T06:40:31.379Z,1360
2022-10-17T06:46:37.684Z,1704
2022-10-17T06:47:20.078Z,1800
2022-10-17T06:47:59.974Z,1960
2022-10-17T06:48:40.651Z,2128
2022-10-17T06:49:21.203Z,2268
2022-10-17T06:50:01.737Z,2320
2022-10-17T06:55:35.889Z,1356
2022-10-17T06:56:19.949Z,1416
2022-10-17T06:57:00.521Z,1640
2022-10-17T06:57:41.181Z,2128
2022-10-17T06:59:02.650Z,2756
2022-10-17T06:59:43.032Z,2844
2022-10-17T07:03:17.066Z,2312
2022-10-17T07:08:22.928Z,1292
2022-10-17T07:09:10.734Z,1408
2022-10-17T07:09:58.074Z,1700
2022-10-17T07:10:43.243Z,2132
2022-10-17T07:11:23.781Z,2160
2022-10-17T07:12:04.410Z,2032
2022-10-17T07:12:46.092Z,2392
2022-10-17T07:16:08.675Z,2452
2022-10-17T07:16:49.302Z,2308
2022-10-17T07:17:30.104Z,2228
2022-10-17T07:18:10.456Z,2088
2022-10-17T07:18:51.025Z,1972
2022-10-17T07:19:31.580Z,1956
2022-10-17T07:20:12.096Z,1908
2022-10-17T07:20:52.657Z,1820
2022-10-17T07:21:35.180Z,1740
2022-10-17T07:22:13.719Z,1600
2022-10-17T07:29:59.048Z,1560
2022-10-17T07:30:39.459Z,1636
2022-10-17T07:31:19.885Z,1660
2022-10-17T07:32:00.383Z,1708
2022-10-17T07:32:40.924Z,1708
2022-10-17T07:33:21.543Z,1740
2022-10-17T07:39:26.660Z,1692
2022-10-17T07:40:07.183Z,1700
2022-10-17T07:40:47.651Z,1724
2022-10-17T07:41:28.370Z,1760
2022-10-17T07:42:08.949Z,1788
2022-10-17T07:42:49.442Z,1804
2022-10-17T07:43:30.004Z,1792
2022-10-17T07:44:11.766Z,1736
2022-10-17T07:48:13.994Z,1636
2022-10-17T07:48:54.780Z,1652
2022-10-17T07:49:35.537Z,1676
2022-10-17T07:50:16.657Z,1684
2022-10-17T07:50:57.649Z,1628
2022-10-17T07:51:41.133Z,1620
2022-10-17T07:53:05.200Z,1596
2022-10-17T07:53:47.930Z,1576
2022-10-17T07:54:26.423Z,1576
2022-10-17T07:55:06.972Z,1592
2022-10-17T07:55:47.461Z,1596
2022-10-17T07:57:13.504Z,1604
2022-10-17T07:58:34.851Z,1564
2022-10-17T07:59:15.241Z,1488
2022-10-17T08:02:29.800Z,1568
2022-10-17T08:03:09.927Z,1496
2022-10-17T08:03:50.672Z,1476
2022-10-17T08:04:31.176Z,1424
2022-10-17T08:05:11.866Z,1364
2022-10-17T08:05:52.993Z,1364
2022-10-17T08:06:33.593Z,1372
2022-10-17T08:11:19.615Z,1396
2022-10-17T08:12:00.880Z,1408
2022-10-17T08:12:42.384Z,1420
2022-10-17T08:13:23.031Z,1416
2022-10-17T08:14:04.096Z,1416
2022-10-17T08:18:10.603Z,1288
2022-10-17T08:18:51.721Z,1276
2022-10-17T08:19:32.260Z,1276
2022-10-17T08:20:12.814Z,1276
2022-10-17T08:20:55.601Z,1268
2022-10-17T08:25:39.268Z,1412
2022-10-17T08:26:20.070Z,1404
2022-10-17T08:27:00.769Z,1400
2022-10-17T08:27:41.453Z,1324
2022-10-17T08:28:21.939Z,1280
2022-10-17T08:31:47.401Z,1104
2022-10-17T08:32:43.277Z,1080
2022-10-17T08:33:24.092Z,1072
2022-10-17T08:34:04.869Z,1080
2022-10-17T08:34:45.693Z,1108
2022-10-17T08:35:26.447Z,1120
2022-10-17T08:36:06.869Z,1144
2022-10-17T08:36:47.474Z,1184
2022-10-17T08:37:30.433Z,1216
2022-10-17T08:38:23.280Z,1264
2022-10-17T08:39:02.060Z,1312
2022-10-17T08:43:23.774Z,1440
2022-10-17T08:44:01.974Z,1444
2022-10-17T08:44:42.441Z,1504
2022-10-17T08:45:24.274Z,1632
2022-10-17T08:46:05.347Z,1512
2022-10-17T08:48:08.350Z,1448
2022-10-17T08:48:48.667Z,1432
2022-10-17T08:49:30.047Z,1432
2022-10-17T08:50:11.056Z,1600
2022-10-17T08:50:55.102Z,1512
2022-10-17T08:51:37.599Z,1400
2022-10-17T08:53:03.569Z,1336
2022-10-17T08:58:01.961Z,1700
2022-10-17T08:58:42.198Z,1648
2022-10-17T09:09:33.363Z,1176
2022-10-17T09:10:13.591Z,1128
2022-10-17T09:10:54.074Z,1096
2022-10-17T09:11:34.730Z,1072
2022-10-17T09:12:15.256Z,1064
2022-10-17T09:12:55.957Z,1056
2022-10-17T09:19:24.379Z,1144
2022-10-17T09:20:05.104Z,1140
2022-10-17T09:20:47.031Z,1100
2022-10-17T09:21:29.013Z,1068
2022-10-17T09:24:15.669Z,1036
2022-10-17T09:24:54.823Z,1028
2022-10-17T09:25:37.106Z,1020
2022-10-17T09:26:16.961Z,1004
2022-10-17T09:26:58.266Z,984
2022-10-17T09:29:44.811Z,904
2022-10-17T09:30:44.002Z,924
2022-10-17T09:31:06.244Z,932
2022-10-17T09:31:47.301Z,936
2022-10-17T09:35:50.302Z,996
2022-10-17T09:43:01.030Z,980
2022-10-17T09:43:41.567Z,964
2022-10-17T09:44:22.409Z,948
2022-10-17T09:45:02.964Z,908
2022-10-17T09:45:43.648Z,892
2022-10-17T09:49:41.800Z,936
2022-10-17T09:50:23.205Z,980
2022-10-17T09:51:15.028Z,1016
2022-10-17T09:51:44.901Z,1064
2022-10-17T09:52:25.624Z,1064
2022-10-17T09:53:06.164Z,1072
2022-10-17T09:57:51.708Z,1376
2022-10-17T09:58:32.389Z,1392
2022-10-17T09:59:13.845Z,1416
2022-10-17T09:59:53.622Z,1432
2022-10-17T10:00:34.298Z,1400
2022-10-17T10:01:18.315Z,1400
2022-10-17T10:01:55.616Z,1332
2022-10-17T10:02:36.187Z,1320
2022-10-17T10:03:16.913Z,1420
2022-10-17T10:08:41.660Z,1332
2022-10-17T10:09:22.299Z,1524
2022-10-17T10:10:02.851Z,1616
2022-10-17T10:10:43.362Z,1660
2022-10-17T10:11:24.106Z,1612
2022-10-17T10:12:04.681Z,1600
2022-10-17T10:12:45.139Z,1588
2022-10-17T10:13:25.750Z,1528
2022-10-17T10:14:06.286Z,1432
2022-10-17T10:19:31.840Z,1072
2022-10-17T10:20:12.418Z,1044
2022-10-17T10:20:52.987Z,1040
2022-10-17T10:21:36.169Z,1044
2022-10-17T10:22:14.174Z,1032
2022-10-17T10:22:55.980Z,1040
2022-10-17T10:23:35.301Z,1040
2022-10-17T10:24:15.840Z,1040
2022-10-17T10:24:56.456Z,1048
2022-10-17T10:30:59.574Z,888
2022-10-17T10:31:41.176Z,928
2022-10-17T10:32:23.278Z,964
2022-10-17T10:33:03.464Z,984
2022-10-17T10:33:48.132Z,968
2022-10-17T10:35:46.899Z,924
2022-10-17T10:36:27.858Z,928
2022-10-17T10:37:09.798Z,940
2022-10-17T10:37:51.052Z,940
2022-10-17T10:39:56.504Z,944
2022-10-17T10:40:37.373Z,944
2022-10-17T10:41:18.018Z,948
2022-10-17T10:41:59.424Z,948
2022-10-17T10:42:39.955Z,932
2022-10-17T10:43:21.189Z,928
2022-10-17T10:44:02.061Z,932
2022-10-17T10:48:47.420Z,840
2022-10-17T10:49:28.056Z,868
2022-10-17T10:50:12.556Z,924
2022-10-17T10:51:02.575Z,976
2022-10-17T10:51:44.585Z,992
2022-10-17T10:53:06.294Z,980
2022-10-17T10:53:47.248Z,964
2022-10-17T10:54:27.799Z,936
2022-10-17T10:55:08.364Z,920
2022-10-17T10:55:48.949Z,908
2022-10-17T10:56:29.693Z,888
2022-10-17T10:59:44.175Z,808
2022-10-17T11:00:24.873Z,772
2022-10-17T11:01:05.429Z,740
2022-10-17T11:01:46.118Z,724
2022-10-17T11:02:26.744Z,720
2022-10-17T11:06:33.837Z,796
2022-10-17T11:09:50.262Z,776
2022-10-17T11:10:30.992Z,788
2022-10-17T11:11:11.761Z,820
2022-10-17T11:11:52.408Z,848
2022-10-17T11:12:33.077Z,864
2022-10-17T11:13:13.885Z,876
2022-10-17T11:15:59.158Z,852
2022-10-17T11:16:39.783Z,856
2022-10-17T11:17:20.377Z,800
2022-10-17T11:18:00.907Z,744
2022-10-17T11:18:44.662Z,700
2022-10-17T11:22:10.181Z,668
2022-10-17T11:22:54.085Z,668
2022-10-17T11:27:37.146Z,748
2022-10-17T11:28:18.141Z,752
2022-10-17T11:29:00.600Z,748
2022-10-17T11:29:41.454Z,740
2022-10-17T11:31:45.784Z,756
2022-10-17T11:32:28.005Z,720
2022-10-17T11:33:08.847Z,704
2022-10-17T11:33:50.386Z,692
2022-10-17T11:34:31.519Z,672
2022-10-17T11:38:36.074Z,592
2022-10-17T11:39:16.109Z,572
2022-10-17T11:39:56.709Z,560
2022-10-17T11:40:37.412Z,544
2022-10-17T11:41:17.892Z,528
2022-10-17T11:41:59.904Z,524
2022-10-17T11:42:39.153Z,516
2022-10-17T11:43:21.565Z,532
2022-10-17T11:46:45.475Z,532
2022-10-17T11:47:26.234Z,548
2022-10-17T11:48:06.914Z,556
2022-10-17T11:48:48.329Z,572
2022-10-17T11:52:19.430Z,604
2022-10-17T11:52:57.478Z,608
2022-10-17T12:32:04.833Z,268
2022-10-17T12:33:00.291Z,272
2022-10-17T12:33:26.016Z,260
2022-10-17T12:34:06.610Z,248
2022-10-17T12:34:47.901Z,264
2022-10-17T12:35:28.566Z,272
2022-10-17T12:40:13.629Z,380
2022-10-17T12:40:54.279Z,388
2022-10-17T12:41:34.932Z,388
2022-10-17T12:42:15.502Z,392
2022-10-17T12:42:57.005Z,408
2022-10-17T12:43:39.693Z,408
2022-10-17T12:44:18.416Z,400
2022-10-17T12:44:59.727Z,384
2022-10-17T12:52:16.503Z,328
2022-10-17T12:55:00.446Z,332
2022-10-17T12:55:34.388Z,332
2022-10-17T12:56:14.876Z,332
2022-10-17T12:56:55.737Z,344
2022-10-17T13:00:18.668Z,376
2022-10-17T13:01:19.371Z,344
2022-10-17T13:01:39.672Z,348
2022-10-17T13:02:20.261Z,364
2022-10-17T13:06:44.540Z,336
2022-10-17T13:07:28.013Z,360
2022-10-17T13:12:04.467Z,312
2022-10-17T13:12:45.505Z,316
2022-10-17T13:13:26.664Z,328
2022-10-17T13:14:07.757Z,356
2022-10-17T13:14:48.903Z,380
2022-10-17T13:18:14.779Z,416
2022-10-17T13:18:55.699Z,424
2022-10-17T13:20:22.079Z,452
2022-10-17T13:21:48.272Z,444
2022-10-17T13:24:36.501Z,472
2022-10-17T13:25:17.413Z,468
2022-10-17T13:25:59.345Z,480
2022-10-17T13:28:05.892Z,544
2022-10-17T13:28:47.690Z,560
2022-10-17T13:32:04.144Z,476
2022-10-17T13:32:47.387Z,444
2022-10-17T13:36:29.636Z,436
2022-10-17T13:37:10.854Z,444
2022-10-17T13:37:54.021Z,440
2022-10-17T13:38:37.736Z,436
2022-10-17T13:40:06.941Z,432
2022-10-17T13:40:48.345Z,424
2022-10-17T13:41:35.188Z,404
2022-10-17T13:42:02.400Z,384
2022-10-17T13:42:44.486Z,380
2022-10-17T13:45:46.653Z,412
2022-10-17T13:46:37.147Z,428
2022-10-17T13:47:08.308Z,440
2022-10-17T13:47:48.995Z,460
2022-10-17T13:48:29.479Z,476
2022-10-17T13:51:13.791Z,508
2022-10-17T13:51:54.321Z,512
2022-10-17T13:52:34.845Z,508
2022-10-17T13:53:15.424Z,512
2022-10-17T13:53:55.835Z,520
2022-10-17T13:54:36.390Z,536
2022-10-17T13:55:17.858Z,564
2022-10-17T13:56:09.728Z,580
2022-10-17T14:07:05.581Z,700
2022-10-17T14:08:09.812Z,708
2022-10-17T14:08:26.294Z,704
2022-10-17T14:09:06.927Z,708
2022-10-17T14:09:47.814Z,692
2022-10-17T14:10:28.361Z,684
2022-10-17T14:11:08.869Z,684
2022-10-17T14:11:49.450Z,676
2022-10-17T14:12:29.975Z,668
2022-10-17T14:19:27.681Z,536
2022-10-17T14:21:31.988Z,524
2022-10-17T14:21:43.151Z,508
2022-10-17T14:23:41.029Z,384
2022-10-17T14:25:42.924Z,352
2022-10-17T14:26:23.658Z,352
2022-10-17T14:27:04.384Z,340
2022-10-17T14:27:44.919Z,320
2022-10-17T14:32:49.892Z,324
2022-10-17T14:33:37.331Z,312
2022-10-17T14:34:17.491Z,296
2022-10-17T14:35:16.500Z,276
2022-10-17T14:35:41.775Z,272
2022-10-17T14:36:21.044Z,264
2022-10-17T14:37:03.002Z,256
2022-10-17T14:37:43.915Z,248
2022-10-17T14:41:50.771Z,300
2022-10-17T14:42:31.699Z,316
2022-10-17T14:43:12.724Z,332
2022-10-17T14:43:53.844Z,344
2022-10-17T14:47:42.034Z,388
2022-10-17T14:48:00.179Z,384
2022-10-17T14:48:41.173Z,388
2022-10-17T14:49:24.766Z,388
2022-10-17T14:50:03.348Z,404
2022-10-17T14:53:28.623Z,408
2022-10-17T14:54:09.610Z,392
2022-10-17T14:54:50.727Z,384
2022-10-17T14:55:31.867Z,372
2022-10-17T14:56:14.489Z,360
2022-10-17T14:57:41.497Z,348
2022-10-17T14:58:25.182Z,348
2022-10-17T14:59:55.889Z,340
2022-10-17T15:00:29.292Z,336
2022-10-17T15:01:10.329Z,328
2022-10-17T15:01:51.613Z,320
2022-10-17T15:02:36.802Z,312
2022-10-17T15:03:59.437Z,292
2022-10-17T15:04:40.481Z,292
2022-10-17T15:05:21.557Z,284
2022-10-17T15:06:02.666Z,280
2022-10-17T15:06:43.588Z,276
2022-10-17T15:10:08.679Z,272
2022-10-17T15:10:49.908Z,260
2022-10-17T15:11:30.857Z,248
2022-10-17T15:12:11.837Z,236
2022-10-17T15:12:59.015Z,224
2022-10-17T15:16:59.466Z,188
2022-10-17T15:17:40.587Z,180
2022-10-17T15:18:21.483Z,176
2022-10-17T15:19:02.702Z,168
2022-10-17T15:19:43.819Z,160
2022-10-17T15:23:09.000Z,140
2022-10-17T15:23:50.089Z,136
2022-10-17T15:24:31.094Z,136
2022-10-17T15:25:53.258Z,128
2022-10-17T15:26:34.320Z,128
2022-10-17T15:29:18.618Z,140
2022-10-17T15:29:59.663Z,136
2022-10-17T15:30:40.755Z,140
2022-10-17T15:31:21.993Z,140
2022-10-17T15:32:03.257Z,140
2022-10-17T15:32:44.509Z,136
2022-10-17T15:35:28.603Z,128
2022-10-17T15:36:09.629Z,124
2022-10-17T15:36:50.638Z,116
2022-10-17T15:37:31.777Z,116
2022-10-17T15:38:12.531Z,108
2022-10-17T15:38:53.578Z,104
2022-10-17T15:42:18.813Z,88
2022-10-17T15:42:59.916Z,88
2022-10-17T15:43:40.932Z,88
2022-10-17T15:44:21.900Z,88
2022-10-17T15:45:02.965Z,84
2022-10-17T15:45:43.917Z,84
2022-10-17T15:49:09.214Z,76
2022-10-17T15:49:50.265Z,72
2022-10-17T15:50:31.705Z,72
2022-10-17T15:51:12.598Z,68
2022-10-17T15:51:55.373Z,68
2022-10-17T15:54:38.592Z,60
2022-10-17T15:55:18.837Z,60
2022-10-17T15:55:59.919Z,60
2022-10-17T15:56:41.092Z,60
2022-10-17T15:57:22.042Z,56
2022-10-17T15:58:03.121Z,52
2022-10-17T15:58:44.174Z,52
2022-10-17T16:01:28.740Z,40
2022-10-17T16:02:09.744Z,40
2022-10-17T16:02:50.775Z,40
2022-10-17T16:03:31.894Z,40
2022-10-17T16:04:13.075Z,40
2022-10-17T16:04:54.008Z,40
2022-10-17T16:06:59.015Z,36
2022-10-17T16:07:40.105Z,36
2022-10-17T16:08:21.117Z,32
2022-10-17T16:09:02.082Z,32
2022-10-17T16:09:43.073Z,32
2022-10-17T16:10:24.128Z,28
2022-10-17T16:13:49.382Z,24
2022-10-17T16:14:30.405Z,24
2022-10-17T16:15:11.474Z,24
2022-10-17T16:15:53.014Z,20
2022-10-17T16:16:33.955Z,20
2022-10-17T16:19:59.159Z,24
2022-10-17T16:20:40.160Z,20
2022-10-17T16:21:21.249Z,24
2022-10-17T16:22:03.699Z,20
2022-10-17T16:22:43.305Z,20
2022-10-17T16:26:49.494Z,16
2022-10-17T16:27:30.516Z,12
2022-10-17T16:28:11.646Z,12
2022-10-17T16:28:52.744Z,12
2022-10-17T16:29:33.624Z,12
2022-10-17T16:32:58.773Z,8
2022-10-17T16:33:39.867Z,12
2022-10-17T16:34:20.877Z,8
2022-10-17T16:35:01.919Z,8
2022-10-17T16:35:43.015Z,4
2022-10-17T16:36:24.032Z,8
2022-10-17T16:39:48.990Z,4
2022-10-17T16:40:29.921Z,4
2022-10-17T16:41:11.078Z,4
2022-10-17T16:41:53.550Z,0
2022-10-17T16:42:33.197Z,4
2022-10-17T16:43:14.101Z,4
2022-10-17T16:46:39.237Z,0
2022-10-17T16:47:20.342Z,0
2022-10-17T16:48:01.453Z,0
2022-10-17T16:48:42.421Z,0
2022-10-17T16:49:23.360Z,0
2022-10-17T16:53:29.190Z,0
2022-10-17T16:54:10.126Z,0
2022-10-17T16:54:51.103Z,0
2022-10-17T16:55:32.130Z,0
2022-10-17T16:56:13.118Z,0
2022-10-17T17:00:19.213Z,0
2022-10-17T17:01:00.226Z,0
2022-10-17T17:01:41.186Z,0
2022-10-17T17:02:22.104Z,0
2022-10-17T17:03:03.119Z,0
2022-10-17T17:03:44.140Z,0
2022-10-17T17:07:09.219Z,0
2022-10-17T17:07:50.214Z,0
2022-10-17T17:08:31.187Z,0
2022-10-17T17:09:12.194Z,0
2022-10-17T17:09:53.315Z,0
2022-10-17T17:10:34.236Z,0
2022-10-17T17:13:59.377Z,0
2022-10-17T17:14:40.394Z,0
2022-10-17T17:15:21.472Z,0
2022-10-17T17:16:02.427Z,0
2022-10-17T17:16:43.437Z,0
2022-10-17T17:20:08.554Z,0
2022-10-17T17:20:49.534Z,0
2022-10-17T17:21:30.582Z,0
2022-10-17T17:22:11.581Z,0
2022-10-17T17:22:52.691Z,0
2022-10-17T17:23:33.674Z,0
2022-10-17T17:26:58.700Z,0
2022-10-17T17:27:39.692Z,0
2022-10-17T17:28:20.717Z,0
2022-10-17T17:29:01.763Z,0
2022-10-17T17:29:42.880Z,0
2022-10-17T17:30:24.626Z,0
2022-10-17T17:33:49.039Z,0
2022-10-17T17:34:30.000Z,0
2022-10-17T17:35:11.037Z,0
2022-10-17T17:35:51.964Z,0
2022-10-17T17:36:32.945Z,0
2022-10-17T17:37:13.943Z,0
2022-10-17T17:40:38.889Z,0
2022-10-17T17:41:19.939Z,0
2022-10-17T17:42:00.887Z,0
2022-10-17T17:42:41.860Z,0
2022-10-17T17:43:22.860Z,0
2022-10-17T17:44:03.975Z,0
2022-10-17T17:47:29.335Z,0
2022-10-17T17:48:09.876Z,0
2022-10-17T17:48:50.874Z,0
2022-10-17T17:49:31.913Z,0
2022-10-17T17:50:12.848Z,0
2022-10-17T17:50:53.941Z,0
2022-10-17T18:34:23.582Z,0
2022-10-17T18:35:03.982Z,0
2022-10-17T18:35:44.472Z,0
2022-10-17T18:36:24.954Z,0
2022-10-17T18:37:05.454Z,0
2022-10-17T18:37:45.822Z,0
2022-10-17T18:38:26.287Z,0
2022-10-17T18:39:06.763Z,0
2022-10-17T18:39:47.323Z,0
2022-10-17T18:40:27.809Z,0
2022-10-17T18:41:08.852Z,0
2022-10-17T18:48:33.442Z,0
2022-10-17T18:49:13.953Z,0
2022-10-17T18:49:54.415Z,0
2022-10-17T18:50:34.890Z,0
2022-10-17T18:51:15.349Z,0
2022-10-17T18:51:55.875Z,0
2022-10-17T18:52:36.323Z,0
2022-10-17T18:53:16.842Z,0
2022-10-17T18:53:57.282Z,0
2022-10-17T18:54:37.800Z,0
2022-10-17T18:55:18.310Z,0
2022-10-17T19:02:43.461Z,0
2022-10-17T19:03:23.957Z,0
2022-10-17T19:04:04.518Z,0
2022-10-17T19:04:44.959Z,0
2022-10-17T19:05:25.407Z,0
2022-10-17T19:06:05.852Z,0
2022-10-17T19:06:46.348Z,0
2022-10-17T19:07:26.980Z,0
2022-10-17T19:08:07.367Z,0
2022-10-17T19:08:47.832Z,0
2022-10-17T19:09:28.310Z,0
2022-10-17T19:16:53.599Z,0
2022-10-17T19:17:34.107Z,0
2022-10-17T19:18:14.580Z,0
2022-10-17T19:18:55.064Z,0
2022-10-17T19:19:35.534Z,0
2022-10-17T19:20:15.991Z,0
2022-10-17T19:20:56.485Z,0
2022-10-17T19:21:36.933Z,0
2022-10-17T19:22:17.518Z,0
2022-10-17T19:22:58.001Z,0
2022-10-17T19:23:38.412Z,0
2022-10-17T19:30:23.214Z,0
2022-10-17T19:31:03.608Z,0
2022-10-17T19:31:44.154Z,0
2022-10-17T19:32:24.598Z,0
2022-10-17T19:33:05.080Z,0
2022-10-17T19:33:45.531Z,0
2022-10-17T19:34:26.041Z,0
2022-10-17T19:35:06.517Z,0
2022-10-17T19:35:46.986Z,0
2022-10-17T19:36:28.977Z,0
2022-10-17T19:37:07.953Z,0
2022-10-17T19:37:48.432Z,0
2022-10-17T19:44:33.487Z,0
2022-10-17T19:45:13.931Z,0
2022-10-17T19:45:54.435Z,0
2022-10-17T19:46:34.968Z,0
2022-10-17T19:47:15.501Z,0
2022-10-17T19:47:56.003Z,0
2022-10-17T19:48:36.496Z,0
2022-10-17T19:49:16.985Z,0
2022-10-17T19:49:57.515Z,0
2022-10-17T19:50:40.537Z,0
2022-10-17T19:51:18.478Z,0
2022-10-17T19:58:03.497Z,0
2022-10-17T19:58:44.023Z,0
2022-10-17T20:00:05.020Z,0
2022-10-17T20:00:45.511Z,0
2022-10-17T20:01:26.069Z,0
2022-10-17T20:02:06.488Z,0
2022-10-17T20:02:47.017Z,0
2022-10-17T20:03:27.534Z,0
2022-10-17T20:04:08.074Z,0
2022-10-17T20:11:33.754Z,0
2022-10-17T20:12:14.443Z,0
2022-10-17T20:12:55.083Z,0
2022-10-17T20:13:35.844Z,0
2022-10-17T20:14:16.833Z,0
2022-10-17T20:14:57.786Z,0
2022-10-17T20:15:38.699Z,0
2022-10-17T20:20:23.215Z,0
2022-10-17T20:21:03.745Z,0
2022-10-17T20:21:44.300Z,0
2022-10-17T20:22:24.809Z,0
2022-10-17T20:23:05.261Z,0
2022-10-17T20:23:45.720Z,0
2022-10-17T20:25:06.713Z,0
2022-10-17T20:25:47.262Z,0
2022-10-17T20:26:43.094Z,0
2022-10-17T20:27:08.229Z,0